Altamahaw, North Carolina
Current Conditions -  °F | °C
As of 6:54 PM on Friday 31 Oct 2014 (Local Time) from KBUY Reporting Station
Overcast Overcast  
Wind Chill: 53°   Ceiling: 7500
Heat Index: 53°   Visibility: 10mi
Dew Point: 41°   Wind: 0mph
Humidity: 64%   Direction: NA
Pressure: 29.81"   Gusts: NA
Location:  36.18°N, 79.51°W
Report Text: KBUY 312254Z AUTO 00000KT 10SM SCT050 OVC075 12/05 A2981 RMK AO2 SLP094 T01170050
Loading
Personal Weather Stations






























Interactive Weather Map
Tropical Storm Tracking
New forecast layout! Learn more

10-Day Weather Forecast

Advertisements
Track Severe Weather on mobile